createdAt,value
2022-10-16T00:00:46.094Z,1006.56
2022-10-16T00:01:46.172Z,1006.56
2022-10-16T00:03:46.055Z,1006.58
2022-10-16T00:04:46.039Z,1006.60
2022-10-16T00:05:46.031Z,1006.59
2022-10-16T00:06:46.031Z,1006.62
2022-10-16T00:07:46.013Z,1006.61
2022-10-16T00:08:45.999Z,1006.61
2022-10-16T00:09:45.988Z,1006.61
2022-10-16T00:10:45.988Z,1006.66
2022-10-16T00:11:46.030Z,1006.64
2022-10-16T00:12:45.955Z,1006.64
2022-10-16T00:13:45.960Z,1006.68
2022-10-16T00:14:45.930Z,1006.68
2022-10-16T00:15:45.922Z,1006.65
2022-10-16T00:16:45.920Z,1006.70
2022-10-16T00:17:45.897Z,1006.68
2022-10-16T00:18:45.889Z,1006.70
2022-10-16T00:19:45.877Z,1006.70
2022-10-16T00:20:45.883Z,1006.74
2022-10-16T00:21:45.869Z,1006.73
2022-10-16T00:22:45.844Z,1006.70
2022-10-16T00:23:45.832Z,1006.70
2022-10-16T00:24:45.835Z,1006.68
2022-10-16T00:25:45.813Z,1006.71
2022-10-16T00:26:45.821Z,1006.71
2022-10-16T00:27:45.793Z,1006.74
2022-10-16T00:28:45.885Z,1006.74
2022-10-16T00:29:45.787Z,1006.79
2022-10-16T00:30:45.756Z,1006.79
2022-10-16T00:31:45.767Z,1006.82
2022-10-16T00:32:45.732Z,1006.81
2022-10-16T00:33:45.739Z,1006.83
2022-10-16T00:34:45.723Z,1006.86
2022-10-16T00:35:45.705Z,1006.89
2022-10-16T00:36:45.707Z,1006.89
2022-10-16T00:37:45.687Z,1006.86
2022-10-16T00:38:45.665Z,1006.88
2022-10-16T00:39:45.671Z,1006.90
2022-10-16T00:40:45.643Z,1006.89
2022-10-16T00:41:45.644Z,1006.88
2022-10-16T00:42:45.621Z,1006.85
2022-10-16T00:43:45.611Z,1006.86
2022-10-16T00:44:45.600Z,1006.86
2022-10-16T00:45:45.609Z,1006.86
2022-10-16T00:46:45.590Z,1006.87
2022-10-16T00:47:45.568Z,1006.84
2022-10-16T00:48:45.558Z,1006.79
2022-10-16T00:49:45.546Z,1006.83
2022-10-16T00:50:45.532Z,1006.83
2022-10-16T00:51:45.543Z,1006.83
2022-10-16T00:52:45.514Z,1006.88
2022-10-16T00:53:45.509Z,1006.89
2022-10-16T00:54:45.491Z,1006.89
2022-10-16T00:55:45.482Z,1006.90
2022-10-16T00:56:45.483Z,1006.91
2022-10-16T00:57:45.457Z,1006.96
2022-10-16T00:58:45.445Z,1006.93
2022-10-16T00:59:45.437Z,1006.98
2022-10-16T01:00:45.469Z,1006.96
2022-10-16T01:01:45.442Z,1006.87
2022-10-16T01:02:45.401Z,1006.95
2022-10-16T01:03:45.393Z,1006.98
2022-10-16T01:04:45.388Z,1006.99
2022-10-16T01:05:45.368Z,1007.00
2022-10-16T01:06:45.370Z,1006.99
2022-10-16T01:07:45.347Z,1007.00
2022-10-16T01:08:45.334Z,1006.98
2022-10-16T01:09:45.324Z,1006.99
2022-10-16T01:10:45.314Z,1006.96
2022-10-16T01:11:45.317Z,1006.99
2022-10-16T01:12:47.823Z,1006.95
2022-10-16T01:13:45.279Z,1006.94
2022-10-16T01:14:45.267Z,1006.87
2022-10-16T01:15:45.265Z,1006.91
2022-10-16T01:16:45.260Z,1006.94
2022-10-16T01:17:45.253Z,1006.96
2022-10-16T01:18:45.223Z,1006.97
2022-10-16T01:19:45.217Z,1007.01
2022-10-16T01:20:45.200Z,1007.00
2022-10-16T01:21:45.213Z,1006.99
2022-10-16T01:22:45.178Z,1007.04
2022-10-16T01:23:45.170Z,1007.02
2022-10-16T01:24:45.296Z,1007.04
2022-10-16T01:25:45.146Z,1007.07
2022-10-16T01:26:45.148Z,1007.08
2022-10-16T01:27:45.185Z,1007.10
2022-10-16T01:28:45.193Z,1007.10
2022-10-16T01:29:45.102Z,1007.07
2022-10-16T01:30:45.089Z,1007.07
2022-10-16T01:31:45.096Z,1007.09
2022-10-16T01:32:45.084Z,1007.12
2022-10-16T01:33:45.191Z,1007.13
2022-10-16T01:34:45.051Z,1007.12
2022-10-16T01:35:45.036Z,1007.12
2022-10-16T01:36:45.036Z,1007.11
2022-10-16T01:37:45.013Z,1007.16
2022-10-16T01:38:45.001Z,1007.20
2022-10-16T01:39:44.999Z,1007.23
2022-10-16T01:40:44.983Z,1007.25
2022-10-16T01:41:44.984Z,1007.18
2022-10-16T01:42:45.068Z,1007.24
2022-10-16T01:43:44.951Z,1007.26
2022-10-16T01:44:44.939Z,1007.24
2022-10-16T01:45:44.936Z,1007.22
2022-10-16T01:46:44.937Z,1007.25
2022-10-16T01:47:44.946Z,1007.22
2022-10-16T01:48:44.891Z,1007.26
2022-10-16T01:49:44.899Z,1007.25
2022-10-16T01:50:44.868Z,1007.24
2022-10-16T01:51:44.874Z,1007.24
2022-10-16T01:52:44.847Z,1007.25
2022-10-16T01:53:44.838Z,1007.22
2022-10-16T01:54:44.829Z,1007.20
2022-10-16T01:55:44.818Z,1007.30
2022-10-16T01:56:44.829Z,1007.25
2022-10-16T01:57:44.802Z,1007.23
2022-10-16T01:58:44.789Z,1007.27
2022-10-16T01:59:44.771Z,1007.27
2022-10-16T02:00:44.812Z,1007.34
2022-10-16T02:01:44.765Z,1007.33
2022-10-16T02:02:44.742Z,1007.36
2022-10-16T02:03:44.728Z,1007.34
2022-10-16T02:04:44.715Z,1007.37
2022-10-16T02:05:44.733Z,1007.37
2022-10-16T02:06:44.708Z,1007.36
2022-10-16T02:07:44.685Z,1007.38
2022-10-16T02:08:44.671Z,1007.40
2022-10-16T02:09:52.378Z,1007.37
2022-10-16T02:10:44.647Z,1007.39
2022-10-16T02:11:44.644Z,1007.41
2022-10-16T02:12:44.624Z,1007.45
2022-10-16T02:13:44.610Z,1007.50
2022-10-16T02:14:44.601Z,1007.50
2022-10-16T02:15:44.588Z,1007.53
2022-10-16T02:16:44.600Z,1007.48
2022-10-16T02:17:44.567Z,1007.50
2022-10-16T02:18:44.564Z,1007.50
2022-10-16T02:19:44.546Z,1007.54
2022-10-16T02:20:44.579Z,1007.55
2022-10-16T02:21:44.538Z,1007.61
2022-10-16T02:22:44.513Z,1007.62
2022-10-16T02:23:44.503Z,1007.65
2022-10-16T02:24:44.490Z,1007.66
2022-10-16T02:25:44.492Z,1007.68
2022-10-16T02:26:44.468Z,1007.66
2022-10-16T02:27:44.456Z,1007.57
2022-10-16T02:28:44.599Z,1007.55
2022-10-16T02:29:44.436Z,1007.53
2022-10-16T02:30:44.435Z,1007.50
2022-10-16T02:31:44.411Z,1007.54
2022-10-16T02:32:44.404Z,1007.49
2022-10-16T02:33:44.389Z,1007.51
2022-10-16T02:34:44.385Z,1007.56
2022-10-16T02:35:44.378Z,1007.53
2022-10-16T02:36:44.364Z,1007.53
2022-10-16T02:37:44.364Z,1007.53
2022-10-16T02:38:44.338Z,1007.54
2022-10-16T02:39:44.324Z,1007.58
2022-10-16T02:40:44.329Z,1007.59
2022-10-16T02:41:44.300Z,1007.63
2022-10-16T02:42:44.306Z,1007.67
2022-10-16T02:43:44.284Z,1007.59
2022-10-16T02:44:44.275Z,1007.61
2022-10-16T02:45:44.268Z,1007.63
2022-10-16T02:46:44.263Z,1007.62
2022-10-16T02:47:44.235Z,1007.60
2022-10-16T02:48:44.226Z,1007.66
2022-10-16T02:49:44.213Z,1007.62
2022-10-16T02:50:44.219Z,1007.66
2022-10-16T02:51:44.192Z,1007.64
2022-10-16T02:52:44.180Z,1007.66
2022-10-16T02:53:44.184Z,1007.64
2022-10-16T02:54:44.158Z,1007.67
2022-10-16T02:55:44.158Z,1007.64
2022-10-16T02:56:44.135Z,1007.63
2022-10-16T02:57:44.124Z,1007.64
2022-10-16T02:58:44.114Z,1007.67
2022-10-16T02:59:44.101Z,1007.65
2022-10-16T03:00:44.210Z,1007.62
2022-10-16T03:01:44.080Z,1007.64
2022-10-16T03:02:44.075Z,1007.63
2022-10-16T03:03:44.060Z,1007.61
2022-10-16T03:04:44.075Z,1007.61
2022-10-16T03:05:44.037Z,1007.60
2022-10-16T03:06:44.033Z,1007.59
2022-10-16T03:07:44.013Z,1007.60
2022-10-16T03:08:44.006Z,1007.66
2022-10-16T03:09:44.017Z,1007.68
2022-10-16T03:10:43.991Z,1007.71
2022-10-16T03:11:43.969Z,1007.74
2022-10-16T03:12:43.959Z,1007.76
2022-10-16T03:13:43.946Z,1007.80
2022-10-16T03:14:43.951Z,1007.81
2022-10-16T03:15:43.924Z,1007.82
2022-10-16T03:16:43.915Z,1007.80
2022-10-16T03:17:43.906Z,1007.80
2022-10-16T03:18:43.892Z,1007.84
2022-10-16T03:19:43.889Z,1007.85
2022-10-16T03:20:43.869Z,1007.86
2022-10-16T03:21:43.857Z,1007.79
2022-10-16T03:22:43.852Z,1007.77
2022-10-16T03:23:43.839Z,1007.78
2022-10-16T03:24:43.853Z,1007.77
2022-10-16T03:25:43.837Z,1007.75
2022-10-16T03:26:43.804Z,1007.79
2022-10-16T03:27:43.789Z,1007.82
2022-10-16T03:28:43.862Z,1007.86
2022-10-16T03:29:43.783Z,1007.92
2022-10-16T03:30:43.760Z,1007.91
2022-10-16T03:31:43.747Z,1007.93
2022-10-16T03:32:43.738Z,1007.95
2022-10-16T03:33:43.723Z,1007.98
2022-10-16T03:34:43.771Z,1008.05
2022-10-16T03:35:43.702Z,1008.05
2022-10-16T03:36:43.692Z,1008.07
2022-10-16T03:37:43.682Z,1008.10
2022-10-16T03:38:43.671Z,1008.10
2022-10-16T03:39:43.674Z,1008.17
2022-10-16T03:40:43.652Z,1008.17
2022-10-16T03:41:43.654Z,1008.16
2022-10-16T03:42:43.631Z,1008.20
2022-10-16T03:43:43.626Z,1008.18
2022-10-16T03:44:43.605Z,1008.14
2022-10-16T03:45:43.591Z,1008.16
2022-10-16T03:46:43.581Z,1008.18
2022-10-16T03:47:43.568Z,1008.18
2022-10-16T03:48:43.568Z,1008.21
2022-10-16T03:49:43.550Z,1008.24
2022-10-16T03:50:43.551Z,1008.28
2022-10-16T03:51:43.533Z,1008.26
2022-10-16T03:52:43.515Z,1008.26
2022-10-16T03:53:43.514Z,1008.23
2022-10-16T03:54:43.494Z,1008.22
2022-10-16T03:55:43.481Z,1008.25
2022-10-16T03:56:43.472Z,1008.23
2022-10-16T03:57:43.478Z,1008.25
2022-10-16T03:58:43.466Z,1008.30
2022-10-16T03:59:43.438Z,1008.33
2022-10-16T04:00:43.486Z,1008.35
2022-10-16T04:01:43.417Z,1008.40
2022-10-16T04:02:43.443Z,1008.40
2022-10-16T04:03:43.408Z,1008.37
2022-10-16T04:04:43.382Z,1008.39
2022-10-16T04:05:43.375Z,1008.39
2022-10-16T04:06:43.401Z,1008.45
2022-10-16T04:07:43.347Z,1008.47
2022-10-16T04:08:43.347Z,1008.45
2022-10-16T04:09:43.326Z,1008.47
2022-10-16T04:10:43.320Z,1008.48
2022-10-16T04:11:43.305Z,1008.53
2022-10-16T04:12:43.294Z,1008.54
2022-10-16T04:13:43.309Z,1008.53
2022-10-16T04:14:43.272Z,1008.55
2022-10-16T04:15:43.263Z,1008.53
2022-10-16T04:16:43.253Z,1008.51
2022-10-16T04:17:43.237Z,1008.50
2022-10-16T04:18:43.244Z,1008.52
2022-10-16T04:19:43.219Z,1008.50
2022-10-16T04:20:43.208Z,1008.55
2022-10-16T04:21:43.194Z,1008.51
2022-10-16T04:22:43.186Z,1008.49
2022-10-16T04:23:43.197Z,1008.46
2022-10-16T04:24:43.168Z,1008.47
2022-10-16T04:25:43.149Z,1008.46
2022-10-16T04:26:43.141Z,1008.50
2022-10-16T04:27:45.976Z,1008.51
2022-10-16T04:28:43.156Z,1008.48
2022-10-16T04:29:43.125Z,1008.45
2022-10-16T04:30:43.099Z,1008.39
2022-10-16T04:31:43.084Z,1008.40
2022-10-16T04:32:43.082Z,1008.36
2022-10-16T04:33:43.073Z,1008.36
2022-10-16T04:34:43.053Z,1008.37
2022-10-16T04:35:43.040Z,1008.41
2022-10-16T04:36:43.030Z,1008.42
2022-10-16T04:37:43.020Z,1008.39
2022-10-16T04:38:43.023Z,1008.31
2022-10-16T04:39:43.015Z,1008.27
2022-10-16T04:40:42.987Z,1008.24
2022-10-16T04:41:42.978Z,1008.22
2022-10-16T04:42:42.969Z,1008.26
2022-10-16T04:43:42.967Z,1008.21
2022-10-16T04:44:42.942Z,1008.21
2022-10-16T04:45:42.948Z,1008.18
2022-10-16T04:46:42.923Z,1008.26
2022-10-16T04:47:42.910Z,1008.20
2022-10-16T04:48:42.916Z,1008.24
2022-10-16T04:49:42.888Z,1008.28
2022-10-16T04:50:42.877Z,1008.29
2022-10-16T04:51:42.877Z,1008.27
2022-10-16T04:52:42.857Z,1008.28
2022-10-16T04:53:42.854Z,1008.32
2022-10-16T04:54:42.833Z,1008.32
2022-10-16T04:55:42.821Z,1008.33
2022-10-16T04:56:42.813Z,1008.30
2022-10-16T04:57:42.799Z,1008.28
2022-10-16T04:58:42.798Z,1008.28
2022-10-16T04:59:42.777Z,1008.33
2022-10-16T05:00:42.773Z,1008.38
2022-10-16T05:01:42.777Z,1008.44
2022-10-16T05:02:42.771Z,1008.53
2022-10-16T05:03:42.762Z,1008.49
2022-10-16T05:04:42.726Z,1008.50
2022-10-16T05:05:42.711Z,1008.50
2022-10-16T05:06:42.711Z,1008.60
2022-10-16T05:07:42.703Z,1008.57
2022-10-16T05:08:42.689Z,1008.59
2022-10-16T05:09:42.668Z,1008.63
2022-10-16T05:10:42.658Z,1008.61
2022-10-16T05:11:42.645Z,1008.66
2022-10-16T05:12:42.642Z,1008.66
2022-10-16T05:13:42.633Z,1008.68
2022-10-16T05:14:42.619Z,1008.69
2022-10-16T05:15:42.601Z,1008.71
2022-10-16T05:16:42.593Z,1008.70
2022-10-16T05:17:44.699Z,1008.71
2022-10-16T05:18:42.582Z,1008.68
2022-10-16T05:19:42.561Z,1008.68
2022-10-16T05:20:42.548Z,1008.69
2022-10-16T05:21:42.535Z,1008.73
2022-10-16T05:22:42.524Z,1008.70
2022-10-16T05:23:42.523Z,1008.68
2022-10-16T05:24:42.502Z,1008.70
2022-10-16T05:25:42.491Z,1008.71
2022-10-16T05:26:42.482Z,1008.75
2022-10-16T05:27:42.471Z,1008.67
2022-10-16T05:28:42.556Z,1008.64
2022-10-16T05:29:42.447Z,1008.63
2022-10-16T05:30:42.436Z,1008.63
2022-10-16T05:31:42.425Z,1008.68
2022-10-16T05:32:42.416Z,1008.70
2022-10-16T05:33:42.467Z,1008.70
2022-10-16T05:34:42.402Z,1008.69
2022-10-16T05:35:42.383Z,1008.63
2022-10-16T05:36:42.372Z,1008.63
2022-10-16T05:37:42.359Z,1008.60
2022-10-16T05:38:42.381Z,1008.64
2022-10-16T05:39:42.338Z,1008.70
2022-10-16T05:40:42.328Z,1008.70
2022-10-16T05:41:42.313Z,1008.70
2022-10-16T05:42:42.306Z,1008.69
2022-10-16T05:43:42.308Z,1008.66
2022-10-16T05:44:42.285Z,1008.72
2022-10-16T05:45:42.273Z,1008.74
2022-10-16T05:46:42.261Z,1008.76
2022-10-16T05:47:42.256Z,1008.77
2022-10-16T05:48:42.280Z,1008.81
2022-10-16T05:49:42.248Z,1008.86
2022-10-16T05:50:42.236Z,1008.85
2022-10-16T05:51:42.208Z,1008.84
2022-10-16T05:52:42.200Z,1008.89
2022-10-16T05:53:42.194Z,1008.85
2022-10-16T05:54:42.247Z,1008.85
2022-10-16T05:55:42.163Z,1008.83
2022-10-16T05:56:42.152Z,1008.81
2022-10-16T05:57:42.142Z,1008.83
2022-10-16T05:58:42.142Z,1008.89
2022-10-16T05:59:42.117Z,1008.89
2022-10-16T06:00:42.111Z,1008.86
2022-10-16T06:01:42.097Z,1008.92
2022-10-16T06:02:42.094Z,1008.89
2022-10-16T06:03:42.092Z,1008.89
2022-10-16T06:04:42.064Z,1008.87
2022-10-16T06:05:42.070Z,1008.87
2022-10-16T06:06:42.062Z,1008.85
2022-10-16T06:07:42.031Z,1008.86
2022-10-16T06:08:42.037Z,1008.87
2022-10-16T06:09:42.010Z,1008.89
2022-10-16T06:10:42.008Z,1008.91
2022-10-16T06:11:41.990Z,1008.96
2022-10-16T06:12:41.997Z,1008.95
2022-10-16T06:13:41.989Z,1009.01
2022-10-16T06:14:41.976Z,1008.95
2022-10-16T06:15:41.944Z,1009.01
2022-10-16T06:16:41.936Z,1009.03
2022-10-16T06:17:41.922Z,1009.03
2022-10-16T06:18:41.934Z,1009.04
2022-10-16T06:19:41.902Z,1009.02
2022-10-16T06:20:41.892Z,1009.08
2022-10-16T06:21:41.894Z,1009.12
2022-10-16T06:22:41.867Z,1009.09
2022-10-16T06:23:41.953Z,1009.13
2022-10-16T06:24:41.858Z,1009.15
2022-10-16T06:25:41.834Z,1009.06
2022-10-16T06:26:41.821Z,1009.04
2022-10-16T06:27:41.812Z,1008.97
2022-10-16T06:28:41.932Z,1008.95
2022-10-16T06:29:41.834Z,1008.97
2022-10-16T06:30:41.778Z,1008.99
2022-10-16T06:31:41.771Z,1009.04
2022-10-16T06:32:41.755Z,1009.10
2022-10-16T06:33:41.757Z,1009.14
2022-10-16T06:34:43.380Z,1009.15
2022-10-16T06:35:41.723Z,1009.16
2022-10-16T06:36:41.709Z,1009.20
2022-10-16T06:37:41.721Z,1009.21
2022-10-16T06:38:41.697Z,1009.23
2022-10-16T06:39:41.679Z,1009.21
2022-10-16T06:40:41.667Z,1009.24
2022-10-16T06:41:41.662Z,1009.24
2022-10-16T06:42:41.656Z,1009.30
2022-10-16T06:43:41.660Z,1009.34
2022-10-16T06:44:41.633Z,1009.38
2022-10-16T06:45:41.614Z,1009.40
2022-10-16T06:46:41.600Z,1009.37
2022-10-16T06:47:41.596Z,1009.40
2022-10-16T06:48:41.600Z,1009.42
2022-10-16T06:49:41.571Z,1009.40
2022-10-16T06:50:41.558Z,1009.42
2022-10-16T06:51:43.196Z,1009.41
2022-10-16T06:52:41.536Z,1009.41
2022-10-16T06:53:54.867Z,1009.49
2022-10-16T06:54:42.742Z,1009.41
2022-10-16T06:55:41.503Z,1009.47
2022-10-16T06:56:41.489Z,1009.51
2022-10-16T06:57:41.479Z,1009.48
2022-10-16T06:58:41.476Z,1009.41
2022-10-16T06:59:44.069Z,1009.44
2022-10-16T07:00:42.447Z,1009.44
2022-10-16T07:01:41.438Z,1009.46
2022-10-16T07:02:41.422Z,1009.49
2022-10-16T07:03:41.427Z,1009.53
2022-10-16T07:04:41.406Z,1009.49
2022-10-16T07:05:41.390Z,1009.51
2022-10-16T07:06:41.377Z,1009.52
2022-10-16T07:07:41.369Z,1009.54
2022-10-16T07:08:41.375Z,1009.52
2022-10-16T07:09:41.369Z,1009.56
2022-10-16T07:10:41.342Z,1009.63
2022-10-16T07:11:41.330Z,1009.61
2022-10-16T07:12:41.313Z,1009.68
2022-10-16T07:13:41.318Z,1009.69
2022-10-16T07:14:41.290Z,1009.69
2022-10-16T07:15:41.283Z,1009.72
2022-10-16T07:16:41.270Z,1009.77
2022-10-16T07:17:41.258Z,1009.78
2022-10-16T07:18:41.264Z,1009.77
2022-10-16T07:19:41.239Z,1009.78
2022-10-16T07:20:41.227Z,1009.75
2022-10-16T07:21:41.224Z,1009.70
2022-10-16T07:22:41.202Z,1009.69
2022-10-16T07:23:41.209Z,1009.69
2022-10-16T07:24:41.181Z,1009.71
2022-10-16T07:25:41.189Z,1009.74
2022-10-16T07:26:41.163Z,1009.71
2022-10-16T07:27:41.164Z,1009.80
2022-10-16T07:28:41.234Z,1009.79
2022-10-16T07:29:41.130Z,1009.77
2022-10-16T07:30:41.122Z,1009.82
2022-10-16T07:31:41.145Z,1009.80
2022-10-16T07:32:41.109Z,1009.79
2022-10-16T07:33:41.099Z,1009.75
2022-10-16T07:34:41.072Z,1009.75
2022-10-16T07:35:41.070Z,1009.68
2022-10-16T07:37:41.041Z,1009.65
2022-10-16T07:38:41.040Z,1009.66
2022-10-16T07:39:41.021Z,1009.70
2022-10-16T07:40:41.012Z,1009.77
2022-10-16T07:41:41.019Z,1009.79
2022-10-16T07:42:40.983Z,1009.79
2022-10-16T07:43:40.989Z,1009.75
2022-10-16T07:44:40.969Z,1009.75
2022-10-16T07:45:40.983Z,1009.77
2022-10-16T07:46:40.941Z,1009.82
2022-10-16T07:47:40.939Z,1009.81
2022-10-16T07:48:40.933Z,1009.82
2022-10-16T07:49:40.908Z,1009.78
2022-10-16T07:50:40.967Z,1009.74
2022-10-16T07:51:40.889Z,1009.72
2022-10-16T07:52:40.875Z,1009.75
2022-10-16T07:53:40.878Z,1009.71
2022-10-16T07:54:40.853Z,1009.80
2022-10-16T07:55:40.847Z,1009.80
2022-10-16T07:56:43.734Z,1009.82
2022-10-16T07:57:40.839Z,1009.80
2022-10-16T07:58:40.825Z,1009.77
2022-10-16T07:59:40.805Z,1009.77
2022-10-16T08:00:40.792Z,1009.76
2022-10-16T08:01:40.843Z,1009.80
2022-10-16T08:02:40.764Z,1009.83
2022-10-16T08:03:40.767Z,1009.91
2022-10-16T08:04:40.742Z,1009.99
2022-10-16T08:05:40.737Z,1010.00
2022-10-16T08:06:40.722Z,1010.06
2022-10-16T08:07:40.716Z,1010.02
2022-10-16T08:08:40.713Z,1010.01
2022-10-16T08:09:40.694Z,1010.03
2022-10-16T08:10:48.513Z,1010.05
2022-10-16T08:11:40.668Z,1010.06
2022-10-16T08:12:40.656Z,1010.16
2022-10-16T08:13:40.674Z,1010.24
2022-10-16T08:14:42.290Z,1010.23
2022-10-16T08:15:40.624Z,1010.24
2022-10-16T08:16:40.612Z,1010.24
2022-10-16T08:17:40.603Z,1010.24
2022-10-16T08:18:40.615Z,1010.24
2022-10-16T08:19:40.581Z,1010.24
2022-10-16T08:20:40.568Z,1010.19
2022-10-16T08:21:40.557Z,1010.19
2022-10-16T08:22:40.545Z,1010.15
2022-10-16T08:23:40.545Z,1010.10
2022-10-16T08:24:40.525Z,1010.17
2022-10-16T08:25:40.514Z,1010.21
2022-10-16T08:26:40.502Z,1010.16
2022-10-16T08:27:40.492Z,1010.16
2022-10-16T08:28:40.577Z,1010.13
2022-10-16T08:29:40.492Z,1010.16
2022-10-16T08:30:40.462Z,1010.17
2022-10-16T08:31:40.449Z,1010.17
2022-10-16T08:32:40.436Z,1010.13
2022-10-16T08:33:40.437Z,1010.18
2022-10-16T08:34:40.420Z,1010.14
2022-10-16T08:35:40.405Z,1010.17
2022-10-16T08:36:40.403Z,1010.17
2022-10-16T08:37:40.383Z,1010.25
2022-10-16T08:38:40.428Z,1010.21
2022-10-16T08:39:40.361Z,1010.24
2022-10-16T08:40:40.350Z,1010.29
2022-10-16T08:41:40.340Z,1010.31
2022-10-16T08:42:40.330Z,1010.26
2022-10-16T08:43:40.333Z,1010.23
2022-10-16T08:44:40.305Z,1010.23
2022-10-16T08:45:40.314Z,1010.22
2022-10-16T08:46:40.285Z,1010.21
2022-10-16T08:47:40.273Z,1010.26
2022-10-16T08:48:40.294Z,1010.23
2022-10-16T08:49:40.253Z,1010.19
2022-10-16T08:50:40.240Z,1010.23
2022-10-16T08:51:43.350Z,1010.24
2022-10-16T08:52:40.219Z,1010.27
2022-10-16T08:53:40.226Z,1010.27
2022-10-16T08:54:40.199Z,1010.26
2022-10-16T08:55:40.187Z,1010.31
2022-10-16T08:56:40.174Z,1010.25
2022-10-16T08:57:40.166Z,1010.25
2022-10-16T08:58:40.214Z,1010.28
2022-10-16T08:59:40.143Z,1010.32
2022-10-16T09:00:40.166Z,1010.36
2022-10-16T09:01:40.140Z,1010.38
2022-10-16T09:02:40.112Z,1010.42
2022-10-16T09:03:40.115Z,1010.41
2022-10-16T09:04:40.087Z,1010.46
2022-10-16T09:05:40.078Z,1010.47
2022-10-16T09:06:40.064Z,1010.41
2022-10-16T09:07:40.060Z,1010.44
2022-10-16T09:08:40.059Z,1010.46
2022-10-16T09:09:40.032Z,1010.46
2022-10-16T09:10:40.022Z,1010.50
2022-10-16T09:11:40.013Z,1010.51
2022-10-16T09:12:40.011Z,1010.48
2022-10-16T09:13:40.030Z,1010.53
2022-10-16T09:14:39.981Z,1010.60
2022-10-16T09:15:39.970Z,1010.58
2022-10-16T09:16:39.957Z,1010.63
2022-10-16T09:17:39.976Z,1010.64
2022-10-16T09:18:39.948Z,1010.62
2022-10-16T09:19:39.943Z,1010.62
2022-10-16T09:20:39.913Z,1010.58
2022-10-16T09:21:39.905Z,1010.61
2022-10-16T09:22:39.896Z,1010.55
2022-10-16T09:23:39.893Z,1010.55
2022-10-16T09:24:39.870Z,1010.55
2022-10-16T09:25:39.869Z,1010.57
2022-10-16T09:26:39.861Z,1010.53
2022-10-16T09:27:39.839Z,1010.69
2022-10-16T09:28:39.916Z,1010.48
2022-10-16T09:29:39.817Z,1010.54
2022-10-16T09:30:39.806Z,1010.51
2022-10-16T09:31:39.802Z,1010.56
2022-10-16T09:32:39.795Z,1010.58
2022-10-16T09:33:39.802Z,1010.49
2022-10-16T09:34:39.763Z,1010.48
2022-10-16T09:35:39.762Z,1010.53
2022-10-16T09:36:39.737Z,1010.55
2022-10-16T09:37:39.727Z,1010.61
2022-10-16T09:38:39.729Z,1010.56
2022-10-16T09:39:39.786Z,1010.61
2022-10-16T09:40:39.694Z,1010.67
2022-10-16T09:41:39.687Z,1010.67
2022-10-16T09:42:39.676Z,1010.85
2022-10-16T09:43:39.686Z,1010.85
2022-10-16T09:45:39.640Z,1010.84
2022-10-16T09:46:39.628Z,1010.83
2022-10-16T09:47:39.621Z,1010.71
2022-10-16T09:48:39.622Z,1010.72
2022-10-16T09:49:39.615Z,1010.72
2022-10-16T09:50:39.588Z,1010.82
2022-10-16T09:51:39.576Z,1010.84
2022-10-16T09:52:39.564Z,1010.81
2022-10-16T09:53:39.636Z,1010.85
2022-10-16T09:54:39.543Z,1010.80
2022-10-16T09:55:39.549Z,1010.87
2022-10-16T09:56:39.520Z,1010.91
2022-10-16T09:57:39.511Z,1010.89
2022-10-16T09:58:39.510Z,1010.91
2022-10-16T09:59:39.491Z,1010.94
2022-10-16T10:00:39.480Z,1010.96
2022-10-16T10:01:39.497Z,1010.94
2022-10-16T10:02:39.462Z,1010.95
2022-10-16T10:03:39.473Z,1010.99
2022-10-16T10:04:39.436Z,1010.92
2022-10-16T10:05:39.445Z,1010.96
2022-10-16T10:06:39.415Z,1010.94
2022-10-16T10:07:39.406Z,1010.92
2022-10-16T10:08:39.406Z,1010.99
2022-10-16T10:09:39.385Z,1011.02
2022-10-16T10:10:39.374Z,1011.06
2022-10-16T10:11:39.364Z,1011.04
2022-10-16T10:12:39.351Z,1011.11
2022-10-16T10:13:39.351Z,1011.12
2022-10-16T10:14:39.331Z,1011.11
2022-10-16T10:15:39.320Z,1011.15
2022-10-16T10:16:39.311Z,1011.09
2022-10-16T10:17:39.298Z,1011.07
2022-10-16T10:18:39.288Z,1011.05
2022-10-16T10:19:39.350Z,1011.11
2022-10-16T10:20:39.266Z,1011.08
2022-10-16T10:21:39.271Z,1011.09
2022-10-16T10:22:39.245Z,1011.05
2022-10-16T10:23:39.237Z,1011.05
2022-10-16T10:24:39.233Z,1011.09
2022-10-16T10:25:39.212Z,1011.14
2022-10-16T10:26:40.537Z,1011.06
2022-10-16T10:27:39.189Z,1011.16
2022-10-16T10:28:39.258Z,1011.13
2022-10-16T10:29:39.178Z,1011.11
2022-10-16T10:30:39.154Z,1011.14
2022-10-16T10:31:39.148Z,1011.18
2022-10-16T10:32:39.135Z,1011.22
2022-10-16T10:33:39.125Z,1011.17
2022-10-16T10:34:39.128Z,1011.19
2022-10-16T10:35:39.100Z,1011.16
2022-10-16T10:36:39.089Z,1011.19
2022-10-16T10:37:39.113Z,1011.23
2022-10-16T10:38:39.083Z,1011.25
2022-10-16T10:39:39.062Z,1011.25
2022-10-16T10:40:39.056Z,1011.29
2022-10-16T10:41:39.034Z,1011.30
2022-10-16T10:42:39.037Z,1011.23
2022-10-16T10:43:39.039Z,1011.27
2022-10-16T10:44:39.013Z,1011.28
2022-10-16T10:45:38.987Z,1011.29
2022-10-16T10:46:42.029Z,1011.31
2022-10-16T10:47:39.965Z,1011.31
2022-10-16T10:48:38.957Z,1011.32
2022-10-16T10:49:38.950Z,1011.30
2022-10-16T10:50:38.933Z,1011.27
2022-10-16T10:51:38.919Z,1011.28
2022-10-16T10:52:38.918Z,1011.23
2022-10-16T10:53:38.920Z,1011.23
2022-10-16T10:54:38.901Z,1011.21
2022-10-16T10:55:38.877Z,1011.25
2022-10-16T10:56:38.864Z,1011.30
2022-10-16T10:57:38.870Z,1011.33
2022-10-16T10:58:38.847Z,1011.33
2022-10-16T10:59:38.839Z,1011.26
2022-10-16T11:00:38.820Z,1011.26
2022-10-16T11:01:38.847Z,1011.24
2022-10-16T11:02:38.810Z,1011.24
2022-10-16T11:03:38.786Z,1011.25
2022-10-16T11:04:38.786Z,1011.25
2022-10-16T11:05:38.768Z,1011.25
2022-10-16T11:06:38.823Z,1011.21
2022-10-16T11:07:38.744Z,1011.23
2022-10-16T11:08:38.733Z,1011.26
2022-10-16T11:09:38.765Z,1011.32
2022-10-16T11:10:38.769Z,1011.33
2022-10-16T11:11:38.698Z,1011.39
2022-10-16T11:12:38.690Z,1011.38
2022-10-16T11:13:38.677Z,1011.38
2022-10-16T11:14:38.676Z,1011.39
2022-10-16T11:15:38.756Z,1011.35
2022-10-16T11:16:38.645Z,1011.35
2022-10-16T11:17:38.632Z,1011.36
2022-10-16T11:18:38.624Z,1011.37
2022-10-16T11:19:38.621Z,1011.33
2022-10-16T11:20:38.603Z,1011.34
2022-10-16T11:21:38.591Z,1011.32
2022-10-16T11:22:38.576Z,1011.31
2022-10-16T11:23:38.579Z,1011.31
2022-10-16T11:24:38.557Z,1011.33
2022-10-16T11:25:38.563Z,1011.32
2022-10-16T11:26:38.538Z,1011.30
2022-10-16T11:27:38.521Z,1011.26
2022-10-16T11:28:38.559Z,1011.23
2022-10-16T11:29:38.507Z,1011.27
2022-10-16T11:30:38.491Z,1011.28
2022-10-16T11:31:38.476Z,1011.30
2022-10-16T11:32:38.468Z,1011.28
2022-10-16T11:33:38.464Z,1011.27
2022-10-16T11:34:38.446Z,1011.31
2022-10-16T11:35:38.435Z,1011.32
2022-10-16T11:36:38.424Z,1011.32
2022-10-16T11:37:38.410Z,1011.33
2022-10-16T11:38:38.410Z,1011.29
2022-10-16T11:39:38.390Z,1011.35
2022-10-16T11:40:38.380Z,1011.37
2022-10-16T11:41:38.396Z,1011.37
2022-10-16T11:42:38.357Z,1011.35
2022-10-16T11:43:38.352Z,1011.34
2022-10-16T11:44:38.341Z,1011.31
2022-10-16T11:45:38.322Z,1011.32
2022-10-16T11:46:52.551Z,1011.31
2022-10-16T11:47:57.988Z,1011.31
2022-10-16T11:48:39.296Z,1011.27
2022-10-16T11:49:38.281Z,1011.29
2022-10-16T11:50:38.276Z,1011.31
2022-10-16T11:51:38.256Z,1011.29
2022-10-16T11:52:38.259Z,1011.36
2022-10-16T11:53:38.258Z,1011.32
2022-10-16T11:54:38.223Z,1011.30
2022-10-16T11:55:41.673Z,1011.38
2022-10-16T11:56:39.208Z,1011.39
2022-10-16T11:57:38.209Z,1011.40
2022-10-16T11:58:38.207Z,1011.37
2022-10-16T11:59:38.169Z,1011.48
2022-10-16T12:00:38.161Z,1011.49
2022-10-16T12:01:38.156Z,1011.49
2022-10-16T12:02:38.137Z,1011.48
2022-10-16T12:03:38.250Z,1011.55
2022-10-16T12:04:38.116Z,1011.48
2022-10-16T12:05:38.103Z,1011.49
2022-10-16T12:06:38.097Z,1011.57
2022-10-16T12:07:38.084Z,1011.56
2022-10-16T12:08:38.082Z,1011.55